Home > Products > Valid Products > MTR

000
SAUS46 KPDT 241458
MTRMEH
METAR KMEH 241456Z AUTO VRB03KT 10SM CLR 12/08 A3005 RMK AO2 SLP166
T01220083 50001





000
SAUS46 KPDT 241458
MTRMEH
METAR KMEH 241456Z AUTO VRB03KT 10SM CLR 12/08 A3005 RMK AO2 SLP166
T01220083 50001





000
SAUS46 KPDT 241358
MTRMEH
METAR KMEH 241356Z AUTO 00000KT 10SM CLR 07/05 A3005 RMK AO2 SLP169
T00720050





000
SAUS46 KPDT 241257
MTRMEH
METAR KMEH 241256Z AUTO 00000KT 10SM CLR 04/03 A3006 RMK AO2 SLP173
T00440033





000
SAUS46 KPDT 241157
MTRMEH
METAR KMEH 241156Z AUTO 00000KT 10SM BKN090 04/03 A3005 RMK AO2
SLP171 T00440033 10100 20044 56007





000
SAUS46 KPDT 241058
MTRMEH
METAR KMEH 241056Z AUTO 00000KT 10SM FEW100 05/04 A3005 RMK AO2
SLP172 T00500039





000
SAUS46 KPDT 240957
MTRMEH
METAR KMEH 240956Z AUTO 00000KT 9SM FEW001 06/04 A3007 RMK AO2
SLP176 T00560044





000
SAUS46 KPDT 240924
MTRMEH
SPECI KMEH 240923Z AUTO 00000KT 8SM SCT001 06/04 A3008 RMK AO2
T00560044





000
SAUS46 KPDT 240857
MTRMEH
METAR KMEH 240856Z AUTO 00000KT 10SM OVC001 06/05 A3007 RMK AO2
SLP179 T00610050 53001





000
SAUS46 KPDT 240831
MTRMEH
SPECI KMEH 240830Z AUTO 00000KT 4SM BR BKN002 BKN120 07/06 A3007 RMK
AO2 T00670056





000
SAUS46 KPDT 240821
MTRMEH
SPECI KMEH 240820Z AUTO 00000KT 6SM BR SCT002 BKN120 07/06 A3007 RMK
AO2 T00670056





000
SAUS46 KPDT 240757
MTRMEH
METAR KMEH 240756Z AUTO 00000KT 10SM FEW120 07/06 A3006 RMK AO2
SLP177 T00720061 401830072





000
SAUS46 KPDT 240748
MTRMEH
SPECI KMEH 240745Z AUTO 00000KT 10SM FEW003 SCT110 07/06 A3006 RMK
AO2 T00720061





000
SAUS46 KPDT 240748
MTRMEH
SPECI KMEH 240745Z AUTO 00000KT 10SM FEW003 SCT110 07/06 A3006 RMK
AO2 T00720061





000
SAUS46 KPDT 240658
MTRMEH
METAR KMEH 240656Z AUTO 00000KT 10SM CLR 08/07 A3006 RMK AO2 SLP178
T00830072





000
SAUS46 KPDT 240558
MTRMEH
METAR KMEH 240556Z AUTO 00000KT 10SM CLR 10/08 A3007 RMK AO2 SLP179
T01000083 10183 20100 50004





000
SAUS46 KPDT 240558
MTRMEH
METAR KMEH 240556Z AUTO 00000KT 10SM CLR 10/08 A3007 RMK AO2 SLP179
T01000083 10183 20100 50004





000
SAUS46 KPDT 240458
MTRMEH
METAR KMEH 240456Z AUTO 00000KT 10SM BKN031 BKN041 OVC060 11/09
A3008 RMK AO2 SLP183 T01110094





000
SAUS46 KPDT 240357
MTRMEH
METAR KMEH 240356Z AUTO 00000KT 10SM CLR 12/09 A3006 RMK AO2 SLP172
T01170094





000
SAUS46 KPDT 240258
MTRMEH
METAR KMEH 240256Z AUTO 00000KT 10SM CLR 14/10 A3005 RMK AO2 SLP169
T01390100 53004





000
SAUS46 KPDT 240258
MTRMEH
METAR KMEH 240256Z AUTO 00000KT 10SM CLR 14/10 A3005 RMK AO2 SLP169
T01390100 53004





000
SAUS46 KPDT 240158
MTRMEH
METAR KMEH 240156Z AUTO VRB04KT 10SM BKN031 17/09 A3004 RMK AO2
SLP162 T01720094





000
SAUS46 KPDT 240158
MTRMEH
METAR KMEH 240156Z AUTO VRB04KT 10SM BKN031 17/09 A3004 RMK AO2
SLP162 T01720094





000
SAUS46 KPDT 240057
MTRMEH
METAR KMEH 240056Z AUTO 00000KT 10SM FEW030 17/09 A3003 RMK AO2
SLP158 T01720089





000
SAUS46 KPDT 240057
MTRMEH
METAR KMEH 240056Z AUTO 00000KT 10SM FEW030 17/09 A3003 RMK AO2
SLP158 T01720089





000
SAUS46 KPDT 240051
MTRMEH
SPECI KMEH 240047Z AUTO 29004KT 10SM SCT029 17/09 A3003 RMK AO2
T01720094





000
SAUS46 KPDT 240000
MTRMEH
METAR KMEH 232356Z AUTO VRB06KT 10SM BKN028 17/09 A3004 RMK AO2
SLP162 T01720094 10172 20111 58013





000
SAUS46 KPDT 240000
MTRMEH
METAR KMEH 232356Z AUTO VRB06KT 10SM BKN028 17/09 A3004 RMK AO2
SLP162 T01720094 10172 20111 58013





000
SAUS46 KPDT 232325
MTRMEH
SPECI KMEH 232322Z AUTO VRB03KT 10SM SCT026 17/10 A3005 RMK AO2
T01670100





000
SAUS46 KPDT 232258
MTRMEH
METAR KMEH 232256Z AUTO VRB04KT 10SM BKN028 17/10 A3006 RMK AO2
SLP166 T01670100





000
SAUS46 KPDT 232258
MTRMEH
METAR KMEH 232256Z AUTO VRB04KT 10SM BKN028 17/10 A3006 RMK AO2
SLP166 T01670100





000
SAUS46 KPDT 232158
MTRMEH
METAR KMEH 232156Z AUTO 00000KT 10SM BKN020 OVC027 17/10 A3006 RMK
AO2 SLP169 T01670100





000
SAUS46 KPDT 232158
MTRMEH
METAR KMEH 232156Z AUTO 00000KT 10SM BKN020 OVC027 17/10 A3006 RMK
AO2 SLP169 T01670100





000
SAUS46 KPDT 232057
MTRMEH
METAR KMEH 232056Z AUTO VRB03KT 10SM OVC021 16/10 A3008 RMK AO2
SLP176 T01560100 51003





000
SAUS46 KPDT 232033
MTRMEH
SPECI KMEH 232030Z AUTO VRB03KT 10SM OVC015 14/10 A3008 RMK AO2
T01390100





000
SAUS46 KPDT 231957
MTRMEH
METAR KMEH 231956Z AUTO 00000KT 10SM OVC013 13/10 A3007 RMK AO2
SLP177 T01330100





000
SAUS46 KPDT 231927
MTRMEH
SPECI KMEH 231926Z AUTO VRB03KT 10SM OVC010 12/09 A3008 RMK AO2
T01220094





000
SAUS46 KPDT 231859
MTRMEH
METAR KMEH 231856Z AUTO 00000KT 10SM OVC008 12/09 A3008 RMK AO2
SLP180 T01170094





000
SAUS46 KPDT 231758
MTRMEH
METAR KMEH 231756Z AUTO 00000KT 10SM OVC007 11/09 A3007 RMK AO2
SLP177 60000 T01110094 10111 20094 51006





000
SAUS46 KPDT 231715
MTRMEH
SPECI KMEH 231714Z AUTO 00000KT 10SM OVC005 11/09 A3007 RMK AO2
T01060089





000
SAUS46 KPDT 231657
MTRMEH
METAR KMEH 231656Z AUTO VRB03KT 9SM OVC004 10/09 A3007 RMK AO2
SLP177 T01000089





000
SAUS46 KPDT 231657
MTRMEH
METAR KMEH 231656Z AUTO VRB03KT 9SM OVC004 10/09 A3007 RMK AO2
SLP177 T01000089





000
SAUS46 KPDT 231646
MTRMEH
SPECI KMEH 231644Z AUTO 00000KT 3SM BR OVC002 10/09 A3007 RMK AO2
T01000089





000
SAUS46 KPDT 231646
MTRMEH
SPECI KMEH 231644Z AUTO 00000KT 3SM BR OVC002 10/09 A3007 RMK AO2
T01000089





000
SAUS46 KPDT 231643
MTRMEH
SPECI KMEH 231640Z AUTO VRB03KT 1 3/4SM BR OVC002 10/09 A3007 RMK
AO2 T01000089





000
SAUS46 KPDT 231643
MTRMEH
SPECI KMEH 231640Z AUTO VRB03KT 1 3/4SM BR OVC002 10/09 A3007 RMK
AO2 T01000089





000
SAUS46 KPDT 231636
MTRMEH
SPECI KMEH 231632Z AUTO VRB03KT 3/4SM BR VV002 10/09 A3007 RMK AO2
T01000089





000
SAUS46 KPDT 231605
MTRMEH
SPECI KMEH 231604Z AUTO 00000KT 1/4SM FG VV002 09/09 A3007 RMK AO2
T00940089





000
SAUS46 KPDT 231557
MTRMEH
METAR KMEH 231556Z AUTO 00000KT 1/2SM FG OVC002 10/09 A3006 RMK AO2
RAB1459E16 SLP175 P0000 T01000089





000
SAUS46 KPDT 231550
MTRMEH
SPECI KMEH 231549Z AUTO 00000KT 1 3/4SM BR OVC003 10/09 A3006 RMK
AO2 RAB1459E16 P0000 T01000089





000
SAUS46 KPDT 231527
MTRMEH
SPECI KMEH 231526Z AUTO VRB03KT 7SM OVC004 10/09 A3006 RMK AO2
RAB1459E16 P0000 T01000089





000
SAUS46 KPDT 231457
MTRMEH
METAR KMEH 231456Z AUTO 00000KT 10SM OVC005 10/08 A3005 RMK AO2
SLP168 T01000083 53008





000
SAUS46 KPDT 231443
MTRMEH
SPECI KMEH 231442Z AUTO 00000KT 10SM OVC005 09/08 A3004 RMK AO2
T00940083





000
SAUS46 KPDT 231421
MTRMEH
SPECI KMEH 231418Z AUTO 00000KT 3SM BR OVC002 09/08 A3004 RMK AO2
T00940083





000
SAUS46 KPDT 231359
MTRMEH
METAR KMEH 231356Z AUTO 00000KT M1/4SM FG VV002 09/09 A3004 RMK AO2
SLP164 T00940089





000
SAUS46 KPDT 231306
MTRMEH
SPECI KMEH 231303Z AUTO VRB03KT 1/4SM FG VV002 09/09 A3002 RMK AO2
T00940089





000
SAUS46 KPDT 231306
MTRMEH
SPECI KMEH 231303Z AUTO VRB03KT 1/4SM FG VV002 09/09 A3002 RMK AO2
T00940089





000
SAUS46 KPDT 231301
MTRMEH
METAR KMEH 231256Z AUTO 00000KT 1/2SM FG VV002 09/08 A3002 RMK AO2
SLP159 T00940083





000
SAUS46 KPDT 231301
MTRMEH
METAR KMEH 231256Z AUTO 00000KT 1/2SM FG VV002 09/08 A3002 RMK AO2
SLP159 T00940083





000
SAUS46 KPDT 231244
MTRMEH
SPECI KMEH 231241Z AUTO 00000KT 1 3/4SM BR OVC002 09/08 A3002 RMK
AO2 T00940083





000
SAUS46 KPDT 231244
MTRMEH
SPECI KMEH 231241Z AUTO 00000KT 1 3/4SM BR OVC002 09/08 A3002 RMK
AO2 T00940083





000
SAUS46 KPDT 231222
MTRMEH
SPECI KMEH 231220Z AUTO 00000KT 7SM OVC003 09/09 A3001 RMK AO2 CIG
002V005 T00940089





000
SAUS46 KPDT 231222
MTRMEH
SPECI KMEH 231220Z AUTO 00000KT 7SM OVC003 09/09 A3001 RMK AO2 CIG
002V005 T00940089





000
SAUS46 KPDT 231157
MTRMEH
METAR KMEH 231156Z AUTO 00000KT 10SM OVC005 09/08 A3001 RMK AO2
RAE43 SLP155 P0001 60004 70015 T00940083 10122 20094 51004





000
SAUS46 KPDT 231157
MTRMEH
METAR KMEH 231156Z AUTO 00000KT 10SM OVC005 09/08 A3001 RMK AO2
RAE43 SLP155 P0001 60004 70015 T00940083 10122 20094 51004





000
SAUS46 KPDT 231058
MTRMEH
METAR KMEH 231056Z AUTO 00000KT 7SM -RA OVC007 11/09 A3000 RMK AO2
RAB06 CIG 005V012 SLP152 P0002 T01060089





000
SAUS46 KPDT 231058
MTRMEH
METAR KMEH 231056Z AUTO 00000KT 7SM -RA OVC007 11/09 A3000 RMK AO2
RAB06 CIG 005V012 SLP152 P0002 T01060089





000
SAUS46 KPDT 231039
MTRMEH
SPECI KMEH 231038Z AUTO 00000KT 10SM -RA BKN007 BKN016 OVC060 11/09
A3001 RMK AO2 RAB06 P0001 T01060089





000
SAUS46 KPDT 231022
MTRMEH
SPECI KMEH 231019Z AUTO VRB03KT 5SM -RA BR SCT007 BKN050 OVC070
11/09 A2999 RMK AO2 RAB06 P0001 T01060094





000
SAUS46 KPDT 230957
MTRMEH
METAR KMEH 230956Z AUTO 00000KT 6SM BR BKN008 BKN040 OVC075 11/10
A3000 RMK AO2 RAB0857E38 CIG 002V008 SLP149 P0001 T01110100





000
SAUS46 KPDT 230935
MTRMEH
SPECI KMEH 230933Z AUTO 00000KT 6SM -RA BR BKN008 BKN033 OVC065
11/10 A3000 RMK AO2 RAB0857 P0001 T01110100





000
SAUS46 KPDT 230857
MTRMEH
METAR KMEH 230856Z AUTO 00000KT 6SM BR FEW003 BKN050 OVC075 11/10
A2999 RMK AO2 SLP146 60000 T01110100 51007





000
SAUS46 KPDT 230824
MTRMEH
SPECI KMEH 230823Z AUTO 00000KT 9SM FEW009 SCT016 OVC043 11/10 A2999
RMK AO2 T01110100





000
SAUS46 KPDT 230824
MTRMEH
SPECI KMEH 230823Z AUTO 00000KT 9SM FEW009 SCT016 OVC043 11/10 A2999
RMK AO2 T01110100





000
SAUS46 KPDT 230813
MTRMEH
SPECI KMEH 230812Z AUTO 00000KT 9SM SCT009 BKN016 OVC041 11/11 A2999
RMK AO2 T01110106





000
SAUS46 KPDT 230813
MTRMEH
SPECI KMEH 230812Z AUTO 00000KT 9SM SCT009 BKN016 OVC041 11/11 A2999
RMK AO2 T01110106





000
SAUS46 KPDT 230757
MTRMEH
METAR KMEH 230756Z AUTO 00000KT 10SM BKN009 OVC016 11/11 A2999 RMK
AO2 RAB35E52 SLP144 P0000 T01110106 401830078





000
SAUS46 KPDT 230737
MTRMEH
SPECI KMEH 230735Z AUTO 00000KT 8SM -RA OVC009 11/11 A2999 RMK AO2
RAB35 P0000 T01110106





000
SAUS46 KPDT 230737
MTRMEH
SPECI KMEH 230735Z AUTO 00000KT 8SM -RA OVC009 11/11 A2999 RMK AO2
RAB35 P0000 T01110106





000
SAUS46 KPDT 230657
MTRMEH
METAR KMEH 230656Z AUTO 00000KT 10SM OVC010 12/10 A2998 RMK AO2
SLP137 T01170100





000
SAUS46 KPDT 230657
MTRMEH
METAR KMEH 230656Z AUTO 00000KT 10SM OVC010 12/10 A2998 RMK AO2
SLP137 T01170100





000
SAUS46 KPDT 230558
MTRMEH
METAR KMEH 230556Z AUTO 00000KT 10SM OVC014 12/11 A2997 RMK AO2
RAE09 SLP135 P0000 60011 T01220106 10150 20122 51011





000
SAUS46 KPDT 230558
MTRMEH
METAR KMEH 230556Z AUTO 00000KT 10SM OVC014 12/11 A2997 RMK AO2
RAE09 SLP135 P0000 60011 T01220106 10150 20122 51011





000
SAUS46 KPDT 230547
MTRMEH
SPECI KMEH 230546Z AUTO 00000KT 10SM OVC014 12/11 A2996 RMK AO2
RAE09 P0000 T01220106





000
SAUS46 KPDT 230527
MTRMEH
SPECI KMEH 230526Z AUTO 00000KT 10SM BKN015 BKN080 OVC100 12/11
A2996 RMK AO2 RAE09 P0000 T01220111





000
SAUS46 KPDT 230457
MTRMEH
METAR KMEH 230456Z AUTO 00000KT 7SM -RA OVC070 12/11 A2996 RMK AO2
SLP131 P0011 T01220111





000
SAUS46 KPDT 230457
MTRMEH
METAR KMEH 230456Z AUTO 00000KT 7SM -RA OVC070 12/11 A2996 RMK AO2
SLP131 P0011 T01220111





000
SAUS46 KPDT 230432
MTRMEH
SPECI KMEH 230428Z AUTO 27003KT 4SM -RA BR FEW025 OVC060 12/12 A2995
RMK AO2 P0008 T01220117





000
SAUS46 KPDT 230421
MTRMEH
SPECI KMEH 230417Z AUTO 27003KT 2SM RA BR FEW021 SCT026 OVC050 12/12
A2995 RMK AO2 P0006 T01220117





000
SAUS46 KPDT 230421
MTRMEH
SPECI KMEH 230417Z AUTO 27003KT 2SM RA BR FEW021 SCT026 OVC050 12/12
A2995 RMK AO2 P0006 T01220117





000
SAUS46 KPDT 230410
MTRMEH
SPECI KMEH 230409Z AUTO 00000KT 3SM RA BR SCT021 BKN036 OVC055 13/12
A2996 RMK AO2 P0003 T01280117





000
SAUS46 KPDT 230357
MTRMEH
METAR KMEH 230356Z AUTO 00000KT 9SM -RA BKN022 BKN028 OVC035 13/11
A2995 RMK AO2 RAB55 SLP130 P0000 T01330106





000
SAUS46 KPDT 230351
MTRMEH
SPECI KMEH 230348Z AUTO 00000KT 10SM BKN022 OVC035 14/11 A2995 RMK
AO2 T01390106





000
SAUS46 KPDT 230258
MTRMEH
METAR KMEH 230256Z AUTO 00000KT 10SM SCT031 BKN095 14/11 A2993 RMK
AO2 SLP126 T01390106 53004





000
SAUS46 KPDT 230258
MTRMEH
METAR KMEH 230256Z AUTO 00000KT 10SM SCT031 BKN095 14/11 A2993 RMK
AO2 SLP126 T01390106 53004





000
SAUS46 KPDT 230157
MTRMEH
METAR KMEH 230156Z AUTO VRB03KT 10SM CLR 14/09 A2992 RMK AO2 SLP124
T01440094





000
SAUS46 KPDT 230057
MTRMEH
METAR KMEH 230056Z AUTO 00000KT 10SM CLR 15/10 A2992 RMK AO2 SLP125
T01500100





000
SAUS46 KPDT 230057
MTRMEH
METAR KMEH 230056Z AUTO 00000KT 10SM CLR 15/10 A2992 RMK AO2 SLP125
T01500100





000
SAUS46 KPDT 222358
MTRMEH
METAR KMEH 222356Z AUTO 00000KT 10SM CLR 14/10 A2992 RMK AO2
RAB06E21 SLP126 P0000 60000 T01390100 10183 20133 58003





000
SAUS46 KPDT 222358
MTRMEH
METAR KMEH 222356Z AUTO 00000KT 10SM CLR 14/10 A2992 RMK AO2
RAB06E21 SLP126 P0000 60000 T01390100 10183 20133 58003





000
SAUS46 KPDT 222257
MTRMEH
METAR KMEH 222256Z AUTO 00000KT 10SM OVC100 13/10 A2993 RMK AO2
SLP130 T01330100





000
SAUS46 KPDT 222213
MTRMEH
SPECI KMEH 222209Z AUTO 00000KT 10SM FEW029 SCT095 SCT120 14/10
A2993 RMK AO2 T01390100





000
SAUS46 KPDT 222213
MTRMEH
SPECI KMEH 222209Z AUTO 00000KT 10SM FEW029 SCT095 SCT120 14/10
A2993 RMK AO2 T01390100





000
SAUS46 KPDT 222157
MTRMEH
METAR KMEH 222156Z AUTO 00000KT 10SM FEW012 SCT019 BKN028 14/10
A2993 RMK AO2 SLP129 T01390100





000
SAUS46 KPDT 222105
MTRMEH
SPECI KMEH 222104Z AUTO VRB03KT 10SM BKN015 BKN019 OVC080 15/12
A2993 RMK AO2 T01500117





000
SAUS46 KPDT 222057
MTRMEH
METAR KMEH 222056Z AUTO 00000KT 10SM BKN014 BKN070 OVC085 15/12
A2993 RMK AO2 RAB26E43 SLP125 P0000 60000 T01500117 51002





000
SAUS46 KPDT 222035 COR
MTRMEH
SPECI KMEH 222033Z AUTO 00000KT 7SM -RA FEW016 SCT049 BKN075 15/12
A2992 RMK AO2 RAB26 P0000 T01500117





000
SAUS46 KPDT 222026
MTRMEH
SPECI KMEH 222025Z AUTO VRB03KT 10SM SCT016 BKN029 BKN090 16/11
A2992 RMK AO2 T01560111





000
SAUS46 KPDT 222022 COR
MTRMEH
SPECI KMEH 222017Z AUTO 00000KT 10SM SCT014 SCT021 BKN095 16/11
A2993 RMK AO2 T01560111





000
SAUS46 KPDT 222005
MTRMEH
SPECI KMEH 222004Z AUTO 00000KT 10SM SCT014 BKN021 BKN090 16/11
A2993 RMK AO2 T01560111





000
SAUS46 KPDT 221958
MTRMEH
METAR KMEH 221956Z AUTO VRB03KT 10SM BKN014 BKN095 15/11 A2993 RMK
AO2 SLP126 T01500106





000
SAUS46 KPDT 221935
MTRMEH
SPECI KMEH 221934Z AUTO VRB03KT 10SM BKN011 BKN016 OVC070 16/12
A2993 RMK AO2 T01610117





000
SAUS46 KPDT 221935
MTRMEH
SPECI KMEH 221934Z AUTO VRB03KT 10SM BKN011 BKN016 OVC070 16/12
A2993 RMK AO2 T01610117





000
SAUS46 KPDT 221858
MTRMEH
METAR KMEH 221856Z AUTO VRB06KT 10SM FEW015 BKN021 OVC060 18/12
A2992 RMK AO2 RAB33E47 SLP120 P0000 T01780117





000
SAUS46 KPDT 221858
MTRMEH
METAR KMEH 221856Z AUTO VRB06KT 10SM FEW015 BKN021 OVC060 18/12
A2992 RMK AO2 RAB33E47 SLP120 P0000 T01780117





000
SAUS46 KPDT 221800
MTRMEH
METAR KMEH 221756Z AUTO VRB03KT 10SM BKN023 BKN030 OVC070 17/11
A2992 RMK AO2 SLP118 T01670106 10178 20078 58001





000
SAUS46 KPDT 221800
MTRMEH
METAR KMEH 221756Z AUTO VRB03KT 10SM BKN023 BKN030 OVC070 17/11
A2992 RMK AO2 SLP118 T01670106 10178 20078 58001





000
SAUS46 KPDT 221747
MTRMEH
SPECI KMEH 221743Z AUTO VRB03KT 10SM SCT023 BKN028 OVC100 17/11
A2992 RMK AO2 T01670106





000
SAUS46 KPDT 221747
MTRMEH
SPECI KMEH 221743Z AUTO VRB03KT 10SM SCT023 BKN028 OVC100 17/11
A2992 RMK AO2 T01670106





000
SAUS46 KPDT 221657
MTRMEH
METAR KMEH 221656Z AUTO VRB04KT 10SM OVC095 16/09 A2993 RMK AO2
SLP122 T01560094





000
SAUS46 KPDT 221657
MTRMEH
METAR KMEH 221656Z AUTO VRB04KT 10SM OVC095 16/09 A2993 RMK AO2
SLP122 T01560094





000
SAUS46 KPDT 221600 COR
MTRMEH
METAR KMEH 221556Z AUTO 00000KT 10SM BKN100 14/10 A2993 RMK AO2
SLP123 T01390100





000
SAUS46 KPDT 221558 COR
MTRMEH
METAR KMEH 221556Z AUTO 00000KT 10SM BKN100 14/10 A2993 RMK AO2
SLP123 T01390100





000
SAUS46 KPDT 221458
MTRMEH
METAR KMEH 221456Z AUTO 00000KT 10SM BKN060 BKN080 OVC120 12/09
A2992 RMK AO2 SLP122 T01170094 53004





000
SAUS46 KPDT 221357
MTRMEH
METAR KMEH 221356Z AUTO 00000KT 10SM BKN065 OVC080 09/08 A2992 RMK
AO2 SLP121 T00940078





000
SAUS46 KPDT 221257
MTRMEH
METAR KMEH 221256Z AUTO 00000KT 10SM BKN075 OVC085 08/07 A2991 RMK
AO2 SLP118 T00830072





000
SAUS46 KPDT 221158
MTRMEH
METAR KMEH 221156Z AUTO 00000KT 10SM SCT090 BKN110 08/07 A2991 RMK
AO2 SLP116 60000 T00830067 10106 20083 50000





000
SAUS46 KPDT 221158
MTRMEH
METAR KMEH 221156Z AUTO 00000KT 10SM SCT090 BKN110 08/07 A2991 RMK
AO2 SLP116 60000 T00830067 10106 20083 50000





000
SAUS46 KPDT 221057
MTRMEH
METAR KMEH 221056Z AUTO 00000KT 10SM OVC075 08/07 A2991 RMK AO2
SLP117 T00830072





000
SAUS46 KPDT 220957
MTRMEH
METAR KMEH 220956Z AUTO 00000KT 10SM BKN065 BKN090 09/08 A2991 RMK
AO2 RAB0857E15 SLP115 P0000 T00940083





000
SAUS46 KPDT 220857
MTRMEH
METAR KMEH 220856Z AUTO 00000KT 10SM BKN065 OVC080 10/08 A2991 RMK
AO2 RAB43E53 SLP113 P0000 60000 T01000083 53002





000
SAUS46 KPDT 220758
MTRMEH
METAR KMEH 220756Z AUTO 00000KT 10SM SCT070 BKN080 OVC100 09/08
A2990 RMK AO2 SLP111 T00940078 402060094





000
SAUS46 KPDT 220657
MTRMEH
METAR KMEH 220656Z AUTO 00000KT 10SM BKN075 09/08 A2990 RMK AO2
SLP112 T00940078





000
SAUS46 KPDT 220657
MTRMEH
METAR KMEH 220656Z AUTO 00000KT 10SM BKN075 09/08 A2990 RMK AO2
SLP112 T00940078





000
SAUS46 KPDT 220557
MTRMEH
METAR KMEH 220556Z AUTO 00000KT 10SM OVC080 11/08 A2990 RMK AO2
SLP110 60000 T01060083 10183 20106 53009





000
SAUS46 KPDT 220458
MTRMEH
METAR KMEH 220456Z AUTO 00000KT 10SM CLR 11/08 A2989 RMK AO2 SLP107
T01110083





000
SAUS46 KPDT 220458
MTRMEH
METAR KMEH 220456Z AUTO 00000KT 10SM CLR 11/08 A2989 RMK AO2 SLP107
T01110083





000
SAUS46 KPDT 220357
MTRMEH
METAR KMEH 220356Z AUTO 00000KT 10SM CLR 12/09 A2988 RMK AO2 SLP104
T01220089





000
SAUS46 KPDT 220257
MTRMEH
METAR KMEH 220256Z AUTO 00000KT 10SM SCT120 14/09 A2987 RMK AO2
SLP103 60000 T01390089 50004





000
SAUS46 KPDT 220159
MTRMEH
METAR KMEH 220156Z AUTO VRB03KT 10SM BKN070 BKN080 OVC100 16/10
A2988 RMK AO2 SLP107 T01560100





000
SAUS46 KPDT 220057
MTRMEH
METAR KMEH 220056Z AUTO 00000KT 10SM CLR 17/08 A2986 RMK AO2 RAE04
SLP098 P0000 T01720078





000
SAUS46 KPDT 212358
MTRMEH
METAR KMEH 212356Z AUTO VRB04KT 10SM -RA FEW042 SCT060 OVC090 18/10
A2986 RMK AO2 RAB40 SLP097 P0000 60000 T01780100 10206 20172 58010





000
SAUS46 KPDT 212358
MTRMEH
METAR KMEH 212356Z AUTO VRB04KT 10SM -RA FEW042 SCT060 OVC090 18/10
A2986 RMK AO2 RAB40 SLP097 P0000 60000 T01780100 10206 20172 58010





000
SAUS46 KPDT 212258
MTRMEH
METAR KMEH 212256Z AUTO VRB03KT 10SM BKN055 18/09 A2988 RMK AO2
SLP102 T01780089





000
SAUS46 KPDT 212159
MTRMEH
METAR KMEH 212156Z AUTO 31006KT 10SM BKN046 BKN060 BKN085 19/09
A2988 RMK AO2 SLP103 T01890094





000
SAUS46 KPDT 212159
MTRMEH
METAR KMEH 212156Z AUTO 31006KT 10SM BKN046 BKN060 BKN085 19/09
A2988 RMK AO2 SLP103 T01890094





000
SAUS46 KPDT 212057
MTRMEH
METAR KMEH 212056Z AUTO 00000KT 10SM FEW030 SCT075 19/08 A2989 RMK
AO2 SLP106 T01890083 58012





000
SAUS46 KPDT 212057
MTRMEH
METAR KMEH 212056Z AUTO 00000KT 10SM FEW030 SCT075 19/08 A2989 RMK
AO2 SLP106 T01890083 58012





000
SAUS46 KPDT 211958
MTRMEH
METAR KMEH 211956Z AUTO 00000KT 10SM FEW034 SCT070 18/09 A2991 RMK
AO2 SLP111 T01830094





000
SAUS46 KPDT 211958
MTRMEH
METAR KMEH 211956Z AUTO 00000KT 10SM FEW034 SCT070 18/09 A2991 RMK
AO2 SLP111 T01830094





000
SAUS46 KPDT 211857
MTRMEH
METAR KMEH 211856Z AUTO VRB04KT 10SM FEW029 19/10 A2993 RMK AO2
SLP118 T01890100





000
SAUS46 KPDT 211759
MTRMEH
METAR KMEH 211756Z AUTO VRB03KT 10SM FEW080 SCT110 19/11 A2993 RMK
AO2 SLP121 T01890111 10189 20094 58002





000
SAUS46 KPDT 211759
MTRMEH
METAR KMEH 211756Z AUTO VRB03KT 10SM FEW080 SCT110 19/11 A2993 RMK
AO2 SLP121 T01890111 10189 20094 58002





000
SAUS46 KPDT 211657
MTRMEH
METAR KMEH 211656Z AUTO 00000KT 10SM FEW018 SCT075 OVC095 17/12
A2993 RMK AO2 SLP125 T01720117





000
SAUS46 KPDT 211657
MTRMEH
METAR KMEH 211656Z AUTO 00000KT 10SM FEW018 SCT075 OVC095 17/12
A2993 RMK AO2 SLP125 T01720117





000
SAUS46 KPDT 211558
MTRMEH
METAR KMEH 211556Z AUTO 00000KT 10SM OVC075 15/12 A2994 RMK AO2
SLP127 T01500117





    US Dept of Commerce
    National Oceanic and Atmospheric Administration
    National Weather Service
    1325 East West Highway
    Silver Spring, MD 20910
    Page Author: NWS Internet Services Team
Disclaimer
Information Quality
Credits
Glossary
Privacy Policy
Freedom of Information Act (FOIA)
About Us
Career Opportunities